sensor_id;sensor_type;location;lat;lon;timestamp;temperature;humidity
18365;DHT22;9309;52.126;11.616;2023-02-28T00:01:07;1.60;67.90
18365;DHT22;9309;52.126;11.616;2023-02-28T00:03:34;1.50;68.60
18365;DHT22;9309;52.126;11.616;2023-02-28T00:06:01;1.60;68.10
18365;DHT22;9309;52.126;11.616;2023-02-28T00:08:28;1.50;67.70
18365;DHT22;9309;52.126;11.616;2023-02-28T00:11:00;1.20;69.10
18365;DHT22;9309;52.126;11.616;2023-02-28T00:13:26;1.50;68.90
18365;DHT22;9309;52.126;11.616;2023-02-28T00:16:01;1.50;68.40
18365;DHT22;9309;52.126;11.616;2023-02-28T00:18:28;1.50;68.20
18365;DHT22;9309;52.126;11.616;2023-02-28T00:20:54;1.70;67.80
18365;DHT22;9309;52.126;11.616;2023-02-28T00:23:21;1.80;67.40
18365;DHT22;9309;52.126;11.616;2023-02-28T00:25:48;1.70;68.30
18365;DHT22;9309;52.126;11.616;2023-02-28T00:28:16;1.70;69.00
18365;DHT22;9309;52.126;11.616;2023-02-28T00:30:43;1.70;68.50
18365;DHT22;9309;52.126;11.616;2023-02-28T00:33:10;1.60;68.50
18365;DHT22;9309;52.126;11.616;2023-02-28T00:35:37;1.60;68.50
18365;DHT22;9309;52.126;11.616;2023-02-28T00:38:03;1.60;68.30
18365;DHT22;9309;52.126;11.616;2023-02-28T00:40:31;1.70;68.30
18365;DHT22;9309;52.126;11.616;2023-02-28T00:42:57;1.70;68.20
18365;DHT22;9309;52.126;11.616;2023-02-28T00:45:25;1.80;67.00
18365;DHT22;9309;52.126;11.616;2023-02-28T00:47:52;1.70;67.30
18365;DHT22;9309;52.126;11.616;2023-02-28T00:50:19;1.60;68.10
18365;DHT22;9309;52.126;11.616;2023-02-28T00:52:46;1.80;67.70
18365;DHT22;9309;52.126;11.616;2023-02-28T00:55:14;1.80;67.10
18365;DHT22;9309;52.126;11.616;2023-02-28T00:57:40;1.70;67.00
18365;DHT22;9309;52.126;11.616;2023-02-28T01:00:09;1.70;67.40
18365;DHT22;9309;52.126;11.616;2023-02-28T01:02:37;1.80;67.20
18365;DHT22;9309;52.126;11.616;2023-02-28T01:05:05;1.70;67.80
18365;DHT22;9309;52.126;11.616;2023-02-28T01:07:32;1.80;67.60
18365;DHT22;9309;52.126;11.616;2023-02-28T01:09:58;1.80;67.50
18365;DHT22;9309;52.126;11.616;2023-02-28T01:12:25;1.80;67.30
18365;DHT22;9309;52.126;11.616;2023-02-28T01:14:51;1.80;67.80
18365;DHT22;9309;52.126;11.616;2023-02-28T01:17:20;1.90;68.20
18365;DHT22;9309;52.126;11.616;2023-02-28T01:19:48;1.80;67.40
18365;DHT22;9309;52.126;11.616;2023-02-28T01:22:15;1.60;68.30
18365;DHT22;9309;52.126;11.616;2023-02-28T01:24:42;1.50;69.20
18365;DHT22;9309;52.126;11.616;2023-02-28T01:27:11;1.60;69.30
18365;DHT22;9309;52.126;11.616;2023-02-28T01:29:38;1.60;68.60
18365;DHT22;9309;52.126;11.616;2023-02-28T01:32:05;1.70;68.20
18365;DHT22;9309;52.126;11.616;2023-02-28T01:34:31;1.50;68.20
18365;DHT22;9309;52.126;11.616;2023-02-28T01:36:59;1.50;69.10
18365;DHT22;9309;52.126;11.616;2023-02-28T01:39:27;1.50;68.00
18365;DHT22;9309;52.126;11.616;2023-02-28T01:41:55;1.30;69.60
18365;DHT22;9309;52.126;11.616;2023-02-28T01:44:55;1.20;70.20
18365;DHT22;9309;52.126;11.616;2023-02-28T01:47:23;1.30;70.30
18365;DHT22;9309;52.126;11.616;2023-02-28T01:49:50;1.40;69.60
18365;DHT22;9309;52.126;11.616;2023-02-28T01:52:19;1.50;69.40
18365;DHT22;9309;52.126;11.616;2023-02-28T01:54:49;1.50;69.50
18365;DHT22;9309;52.126;11.616;2023-02-28T01:57:20;1.40;69.40
18365;DHT22;9309;52.126;11.616;2023-02-28T01:59:51;1.40;69.10
18365;DHT22;9309;52.126;11.616;2023-02-28T02:02:21;1.30;69.40
18365;DHT22;9309;52.126;11.616;2023-02-28T02:04:53;1.30;69.60
18365;DHT22;9309;52.126;11.616;2023-02-28T02:07:23;1.40;69.50
18365;DHT22;9309;52.126;11.616;2023-02-28T02:09:59;1.20;69.80
18365;DHT22;9309;52.126;11.616;2023-02-28T02:12:35;1.10;71.10
18365;DHT22;9309;52.126;11.616;2023-02-28T02:15:08;1.20;70.30
18365;DHT22;9309;52.126;11.616;2023-02-28T02:17:40;1.10;70.50
18365;DHT22;9309;52.126;11.616;2023-02-28T02:23:33;1.10;70.90
18365;DHT22;9309;52.126;11.616;2023-02-28T02:26:17;1.00;71.80
18365;DHT22;9309;52.126;11.616;2023-02-28T02:29:15;1.00;72.20
18365;DHT22;9309;52.126;11.616;2023-02-28T02:32:04;1.10;71.50
18365;DHT22;9309;52.126;11.616;2023-02-28T02:34:42;1.10;71.90
18365;DHT22;9309;52.126;11.616;2023-02-28T02:37:21;1.20;71.00
18365;DHT22;9309;52.126;11.616;2023-02-28T02:39:53;1.10;71.60
18365;DHT22;9309;52.126;11.616;2023-02-28T02:42:24;1.10;72.20
18365;DHT22;9309;52.126;11.616;2023-02-28T02:44:59;1.30;70.90
18365;DHT22;9309;52.126;11.616;2023-02-28T02:47:30;1.40;70.10
18365;DHT22;9309;52.126;11.616;2023-02-28T02:50:03;1.20;71.00
18365;DHT22;9309;52.126;11.616;2023-02-28T02:52:36;1.20;71.10
18365;DHT22;9309;52.126;11.616;2023-02-28T02:55:07;1.10;71.70
18365;DHT22;9309;52.126;11.616;2023-02-28T02:57:38;1.10;72.00
18365;DHT22;9309;52.126;11.616;2023-02-28T03:00:08;1.10;71.70
18365;DHT22;9309;52.126;11.616;2023-02-28T03:02:36;1.10;70.80
18365;DHT22;9309;52.126;11.616;2023-02-28T03:05:11;1.20;70.00
18365;DHT22;9309;52.126;11.616;2023-02-28T03:07:40;1.10;71.50
18365;DHT22;9309;52.126;11.616;2023-02-28T03:10:26;1.00;71.70
18365;DHT22;9309;52.126;11.616;2023-02-28T03:13:01;1.00;71.70
18365;DHT22;9309;52.126;11.616;2023-02-28T03:15:40;1.10;71.70
18365;DHT22;9309;52.126;11.616;2023-02-28T03:18:10;0.90;72.10
18365;DHT22;9309;52.126;11.616;2023-02-28T03:20:45;1.00;71.70
18365;DHT22;9309;52.126;11.616;2023-02-28T03:23:17;1.00;71.80
18365;DHT22;9309;52.126;11.616;2023-02-28T03:25:55;1.10;71.50
18365;DHT22;9309;52.126;11.616;2023-02-28T03:28:30;1.00;71.40
18365;DHT22;9309;52.126;11.616;2023-02-28T03:30:59;1.10;71.30
18365;DHT22;9309;52.126;11.616;2023-02-28T03:33:30;1.20;70.00
18365;DHT22;9309;52.126;11.616;2023-02-28T03:36:02;1.20;69.20
18365;DHT22;9309;52.126;11.616;2023-02-28T03:38:34;1.20;68.50
18365;DHT22;9309;52.126;11.616;2023-02-28T03:41:06;1.00;70.10
18365;DHT22;9309;52.126;11.616;2023-02-28T03:43:38;1.10;70.20
18365;DHT22;9309;52.126;11.616;2023-02-28T03:46:09;1.20;70.10
18365;DHT22;9309;52.126;11.616;2023-02-28T03:48:40;1.20;69.70
18365;DHT22;9309;52.126;11.616;2023-02-28T03:51:12;1.10;70.20
18365;DHT22;9309;52.126;11.616;2023-02-28T03:53:42;1.10;70.80
18365;DHT22;9309;52.126;11.616;2023-02-28T03:56:14;1.10;71.20
18365;DHT22;9309;52.126;11.616;2023-02-28T03:58:46;0.90;71.40
18365;DHT22;9309;52.126;11.616;2023-02-28T04:01:16;0.70;71.80
18365;DHT22;9309;52.126;11.616;2023-02-28T04:03:45;0.60;73.20
18365;DHT22;9309;52.126;11.616;2023-02-28T04:06:16;0.70;73.00
18365;DHT22;9309;52.126;11.616;2023-02-28T04:08:44;0.70;72.90
18365;DHT22;9309;52.126;11.616;2023-02-28T04:11:21;0.70;73.30
18365;DHT22;9309;52.126;11.616;2023-02-28T04:13:48;0.80;71.90
18365;DHT22;9309;52.126;11.616;2023-02-28T04:16:15;0.70;72.40
18365;DHT22;9309;52.126;11.616;2023-02-28T04:18:42;0.70;72.80
18365;DHT22;9309;52.126;11.616;2023-02-28T04:21:10;0.80;72.40
18365;DHT22;9309;52.126;11.616;2023-02-28T04:23:38;0.90;71.10
18365;DHT22;9309;52.126;11.616;2023-02-28T04:26:05;0.60;73.10
18365;DHT22;9309;52.126;11.616;2023-02-28T04:28:32;0.70;73.30
18365;DHT22;9309;52.126;11.616;2023-02-28T04:31:00;0.70;72.80
18365;DHT22;9309;52.126;11.616;2023-02-28T04:33:27;0.70;73.00
18365;DHT22;9309;52.126;11.616;2023-02-28T04:36:02;0.80;72.30
18365;DHT22;9309;52.126;11.616;2023-02-28T04:38:29;0.70;72.50
18365;DHT22;9309;52.126;11.616;2023-02-28T04:40:58;0.60;73.70
18365;DHT22;9309;52.126;11.616;2023-02-28T04:43:25;0.70;73.70
18365;DHT22;9309;52.126;11.616;2023-02-28T04:45:52;0.70;73.30
18365;DHT22;9309;52.126;11.616;2023-02-28T04:48:19;0.70;72.80
18365;DHT22;9309;52.126;11.616;2023-02-28T04:50:46;0.60;72.60
18365;DHT22;9309;52.126;11.616;2023-02-28T04:53:13;0.50;73.50
18365;DHT22;9309;52.126;11.616;2023-02-28T04:55:39;0.60;72.80
18365;DHT22;9309;52.126;11.616;2023-02-28T04:58:07;0.70;72.40
18365;DHT22;9309;52.126;11.616;2023-02-28T05:00:34;0.80;71.70
18365;DHT22;9309;52.126;11.616;2023-02-28T05:03:01;0.50;73.30
18365;DHT22;9309;52.126;11.616;2023-02-28T05:05:28;0.30;74.30
18365;DHT22;9309;52.126;11.616;2023-02-28T05:07:54;0.20;75.10
18365;DHT22;9309;52.126;11.616;2023-02-28T05:10:21;0.10;75.60
18365;DHT22;9309;52.126;11.616;2023-02-28T05:12:48;-0.10;76.20
18365;DHT22;9309;52.126;11.616;2023-02-28T05:15:17;0.00;75.60
18365;DHT22;9309;52.126;11.616;2023-02-28T05:17:43;-0.10;76.30
18365;DHT22;9309;52.126;11.616;2023-02-28T05:20:11;-0.10;76.40
18365;DHT22;9309;52.126;11.616;2023-02-28T05:22:39;-0.20;77.00
18365;DHT22;9309;52.126;11.616;2023-02-28T05:25:06;-0.30;77.60
18365;DHT22;9309;52.126;11.616;2023-02-28T05:27:33;-0.30;77.50
18365;DHT22;9309;52.126;11.616;2023-02-28T05:30:00;-0.10;76.30
18365;DHT22;9309;52.126;11.616;2023-02-28T05:32:30;0.00;76.00
18365;DHT22;9309;52.126;11.616;2023-02-28T05:34:56;-0.10;76.60
18365;DHT22;9309;52.126;11.616;2023-02-28T05:37:23;-0.30;77.30
18365;DHT22;9309;52.126;11.616;2023-02-28T05:39:50;-0.20;76.60
18365;DHT22;9309;52.126;11.616;2023-02-28T05:42:16;-0.30;76.80
18365;DHT22;9309;52.126;11.616;2023-02-28T05:44:43;-0.40;77.70
18365;DHT22;9309;52.126;11.616;2023-02-28T05:47:09;-0.40;77.60
18365;DHT22;9309;52.126;11.616;2023-02-28T05:49:39;-0.50;78.10
18365;DHT22;9309;52.126;11.616;2023-02-28T05:52:06;-0.60;78.90
18365;DHT22;9309;52.126;11.616;2023-02-28T05:54:32;-0.70;79.20
18365;DHT22;9309;52.126;11.616;2023-02-28T05:56:59;-0.70;79.30
18365;DHT22;9309;52.126;11.616;2023-02-28T05:59:26;-0.70;80.60
18365;DHT22;9309;52.126;11.616;2023-02-28T06:01:52;-0.80;80.90
18365;DHT22;9309;52.126;11.616;2023-02-28T06:04:20;-0.90;80.80
18365;DHT22;9309;52.126;11.616;2023-02-28T06:06:49;-0.80;81.10
18365;DHT22;9309;52.126;11.616;2023-02-28T06:09:17;-0.70;80.80
18365;DHT22;9309;52.126;11.616;2023-02-28T06:11:44;-0.60;80.20
18365;DHT22;9309;52.126;11.616;2023-02-28T06:14:14;-0.50;79.60
18365;DHT22;9309;52.126;11.616;2023-02-28T06:16:41;-0.40;79.00
18365;DHT22;9309;52.126;11.616;2023-02-28T06:19:09;-0.50;79.20
18365;DHT22;9309;52.126;11.616;2023-02-28T06:21:36;-0.70;79.80
18365;DHT22;9309;52.126;11.616;2023-02-28T06:24:05;-0.70;80.00
18365;DHT22;9309;52.126;11.616;2023-02-28T06:26:31;-0.60;80.40
18365;DHT22;9309;52.126;11.616;2023-02-28T06:28:58;-0.60;80.60
18365;DHT22;9309;52.126;11.616;2023-02-28T06:31:26;-0.70;80.10
18365;DHT22;9309;52.126;11.616;2023-02-28T06:33:55;-0.70;80.50
18365;DHT22;9309;52.126;11.616;2023-02-28T06:36:22;-0.60;80.80
18365;DHT22;9309;52.126;11.616;2023-02-28T06:38:48;-0.50;80.00
18365;DHT22;9309;52.126;11.616;2023-02-28T06:41:21;-0.50;80.20
18365;DHT22;9309;52.126;11.616;2023-02-28T06:43:49;-0.60;80.70
18365;DHT22;9309;52.126;11.616;2023-02-28T06:46:16;-0.60;80.80
18365;DHT22;9309;52.126;11.616;2023-02-28T06:48:43;-0.60;80.80
18365;DHT22;9309;52.126;11.616;2023-02-28T06:51:12;-0.50;80.30
18365;DHT22;9309;52.126;11.616;2023-02-28T06:53:39;-0.30;78.90
18365;DHT22;9309;52.126;11.616;2023-02-28T06:56:07;-0.20;79.00
18365;DHT22;9309;52.126;11.616;2023-02-28T06:58:36;-0.30;78.70
18365;DHT22;9309;52.126;11.616;2023-02-28T07:01:03;-0.40;79.60
18365;DHT22;9309;52.126;11.616;2023-02-28T07:03:30;-0.40;80.60
18365;DHT22;9309;52.126;11.616;2023-02-28T07:05:57;-0.30;80.00
18365;DHT22;9309;52.126;11.616;2023-02-28T07:08:25;0.00;78.30
18365;DHT22;9309;52.126;11.616;2023-02-28T07:10:52;-0.10;77.80
18365;DHT22;9309;52.126;11.616;2023-02-28T07:13:19;-0.20;79.40
18365;DHT22;9309;52.126;11.616;2023-02-28T07:15:54;0.00;78.40
18365;DHT22;9309;52.126;11.616;2023-02-28T07:18:21;-0.10;78.90
18365;DHT22;9309;52.126;11.616;2023-02-28T07:20:48;-0.10;79.20
18365;DHT22;9309;52.126;11.616;2023-02-28T07:23:14;0.00;78.30
18365;DHT22;9309;52.126;11.616;2023-02-28T07:25:41;0.20;77.60
18365;DHT22;9309;52.126;11.616;2023-02-28T07:28:08;0.40;76.90
18365;DHT22;9309;52.126;11.616;2023-02-28T07:30:34;0.30;77.30
18365;DHT22;9309;52.126;11.616;2023-02-28T07:33:03;0.20;77.30
18365;DHT22;9309;52.126;11.616;2023-02-28T07:35:29;0.30;77.50
18365;DHT22;9309;52.126;11.616;2023-02-28T07:37:57;0.40;75.90
18365;DHT22;9309;52.126;11.616;2023-02-28T07:40:24;0.40;75.80
18365;DHT22;9309;52.126;11.616;2023-02-28T07:42:50;0.50;76.10
18365;DHT22;9309;52.126;11.616;2023-02-28T07:45:17;0.60;75.50
18365;DHT22;9309;52.126;11.616;2023-02-28T07:47:45;0.90;75.00
18365;DHT22;9309;52.126;11.616;2023-02-28T07:50:15;1.30;72.80
18365;DHT22;9309;52.126;11.616;2023-02-28T07:52:42;1.40;70.80
18365;DHT22;9309;52.126;11.616;2023-02-28T07:55:10;1.60;70.10
18365;DHT22;9309;52.126;11.616;2023-02-28T07:57:36;1.60;69.80
18365;DHT22;9309;52.126;11.616;2023-02-28T08:00:04;1.80;69.80
18365;DHT22;9309;52.126;11.616;2023-02-28T08:02:37;2.00;69.30
18365;DHT22;9309;52.126;11.616;2023-02-28T08:05:04;2.10;67.30
18365;DHT22;9309;52.126;11.616;2023-02-28T08:07:32;2.30;66.60
18365;DHT22;9309;52.126;11.616;2023-02-28T08:09:59;2.40;65.10
18365;DHT22;9309;52.126;11.616;2023-02-28T08:12:26;2.60;65.10
18365;DHT22;9309;52.126;11.616;2023-02-28T08:14:53;2.80;63.70
18365;DHT22;9309;52.126;11.616;2023-02-28T08:17:19;2.50;63.10
18365;DHT22;9309;52.126;11.616;2023-02-28T08:19:46;2.10;64.30
18365;DHT22;9309;52.126;11.616;2023-02-28T08:22:13;2.30;64.10
18365;DHT22;9309;52.126;11.616;2023-02-28T08:24:42;2.90;63.80
18365;DHT22;9309;52.126;11.616;2023-02-28T08:27:09;4.10;58.60
18365;DHT22;9309;52.126;11.616;2023-02-28T08:29:36;3.90;58.10
18365;DHT22;9309;52.126;11.616;2023-02-28T08:32:03;4.60;57.00
18365;DHT22;9309;52.126;11.616;2023-02-28T08:34:30;5.70;53.50
18365;DHT22;9309;52.126;11.616;2023-02-28T08:36:57;7.00;50.20
18365;DHT22;9309;52.126;11.616;2023-02-28T08:39:24;8.80;47.40
18365;DHT22;9309;52.126;11.616;2023-02-28T08:41:52;9.70;42.70
18365;DHT22;9309;52.126;11.616;2023-02-28T08:44:19;9.40;41.10
18365;DHT22;9309;52.126;11.616;2023-02-28T08:46:45;9.80;40.30
18365;DHT22;9309;52.126;11.616;2023-02-28T08:49:12;10.10;39.80
18365;DHT22;9309;52.126;11.616;2023-02-28T08:51:38;10.60;38.40
18365;DHT22;9309;52.126;11.616;2023-02-28T08:54:05;10.90;37.60
18365;DHT22;9309;52.126;11.616;2023-02-28T08:56:32;10.90;36.80
18365;DHT22;9309;52.126;11.616;2023-02-28T08:59:00;10.80;37.10
18365;DHT22;9309;52.126;11.616;2023-02-28T09:01:28;11.10;35.80
18365;DHT22;9309;52.126;11.616;2023-02-28T09:03:55;11.20;35.00
18365;DHT22;9309;52.126;11.616;2023-02-28T09:06:24;10.50;36.50
18365;DHT22;9309;52.126;11.616;2023-02-28T09:08:51;10.40;34.40
18365;DHT22;9309;52.126;11.616;2023-02-28T09:11:19;10.50;33.80
18365;DHT22;9309;52.126;11.616;2023-02-28T09:13:45;8.50;35.50
18365;DHT22;9309;52.126;11.616;2023-02-28T09:16:15;7.20;40.20
18365;DHT22;9309;52.126;11.616;2023-02-28T09:18:42;7.60;38.10
18365;DHT22;9309;52.126;11.616;2023-02-28T09:21:11;8.30;36.90
18365;DHT22;9309;52.126;11.616;2023-02-28T09:23:40;8.60;36.80
18365;DHT22;9309;52.126;11.616;2023-02-28T09:26:07;10.00;35.20
18365;DHT22;9309;52.126;11.616;2023-02-28T09:28:34;10.60;32.60
18365;DHT22;9309;52.126;11.616;2023-02-28T09:31:00;9.90;33.10
18365;DHT22;9309;52.126;11.616;2023-02-28T09:33:31;8.50;36.20
18365;DHT22;9309;52.126;11.616;2023-02-28T09:36:00;7.40;38.00
18365;DHT22;9309;52.126;11.616;2023-02-28T09:38:27;6.60;39.30
18365;DHT22;9309;52.126;11.616;2023-02-28T09:40:57;6.30;40.50
18365;DHT22;9309;52.126;11.616;2023-02-28T09:43:26;5.80;42.60
18365;DHT22;9309;52.126;11.616;2023-02-28T09:45:56;5.60;42.50
18365;DHT22;9309;52.126;11.616;2023-02-28T09:48:29;6.30;41.70
18365;DHT22;9309;52.126;11.616;2023-02-28T09:51:04;6.20;40.20
18365;DHT22;9309;52.126;11.616;2023-02-28T09:53:34;5.50;40.80
18365;DHT22;9309;52.126;11.616;2023-02-28T09:56:07;6.00;38.80
18365;DHT22;9309;52.126;11.616;2023-02-28T09:58:38;6.90;37.40
18365;DHT22;9309;52.126;11.616;2023-02-28T10:01:12;8.20;35.00
18365;DHT22;9309;52.126;11.616;2023-02-28T10:03:47;9.20;33.10
18365;DHT22;9309;52.126;11.616;2023-02-28T10:06:27;9.80;32.80
18365;DHT22;9309;52.126;11.616;2023-02-28T10:09:00;10.70;31.00
18365;DHT22;9309;52.126;11.616;2023-02-28T10:11:28;10.50;30.70
18365;DHT22;9309;52.126;11.616;2023-02-28T10:13:59;11.50;29.70
18365;DHT22;9309;52.126;11.616;2023-02-28T10:16:32;13.10;27.70
18365;DHT22;9309;52.126;11.616;2023-02-28T10:19:04;13.90;26.50
18365;DHT22;9309;52.126;11.616;2023-02-28T10:21:36;12.20;27.00
18365;DHT22;9309;52.126;11.616;2023-02-28T10:24:14;11.60;28.20
18365;DHT22;9309;52.126;11.616;2023-02-28T10:26:44;10.40;30.10
18365;DHT22;9309;52.126;11.616;2023-02-28T10:29:11;9.60;30.60
18365;DHT22;9309;52.126;11.616;2023-02-28T10:31:38;9.30;32.40
18365;DHT22;9309;52.126;11.616;2023-02-28T10:34:06;10.70;30.30
18365;DHT22;9309;52.126;11.616;2023-02-28T10:36:34;11.90;29.50
18365;DHT22;9309;52.126;11.616;2023-02-28T10:39:01;11.40;29.40
18365;DHT22;9309;52.126;11.616;2023-02-28T10:41:49;10.00;29.90
18365;DHT22;9309;52.126;11.616;2023-02-28T10:44:21;8.30;33.10
18365;DHT22;9309;52.126;11.616;2023-02-28T10:46:48;8.90;33.40
18365;DHT22;9309;52.126;11.616;2023-02-28T10:49:19;9.70;31.80
18365;DHT22;9309;52.126;11.616;2023-02-28T10:51:49;9.50;31.90
18365;DHT22;9309;52.126;11.616;2023-02-28T10:54:19;9.10;31.90
18365;DHT22;9309;52.126;11.616;2023-02-28T10:57:08;8.20;32.90
18365;DHT22;9309;52.126;11.616;2023-02-28T10:59:38;9.90;31.60
18365;DHT22;9309;52.126;11.616;2023-02-28T11:02:30;10.00;31.20
18365;DHT22;9309;52.126;11.616;2023-02-28T11:04:57;7.90;33.40
18365;DHT22;9309;52.126;11.616;2023-02-28T11:07:25;7.30;34.70
18365;DHT22;9309;52.126;11.616;2023-02-28T11:09:54;8.00;35.70
18365;DHT22;9309;52.126;11.616;2023-02-28T11:12:26;9.50;32.60
18365;DHT22;9309;52.126;11.616;2023-02-28T11:14:56;10.70;30.30
18365;DHT22;9309;52.126;11.616;2023-02-28T11:17:26;11.50;29.20
18365;DHT22;9309;52.126;11.616;2023-02-28T11:19:56;12.30;28.30
18365;DHT22;9309;52.126;11.616;2023-02-28T11:22:25;13.10;26.90
18365;DHT22;9309;52.126;11.616;2023-02-28T11:24:56;14.10;25.90
18365;DHT22;9309;52.126;11.616;2023-02-28T11:27:40;14.00;25.80
18365;DHT22;9309;52.126;11.616;2023-02-28T11:30:24;14.00;25.60
18365;DHT22;9309;52.126;11.616;2023-02-28T11:32:51;17.00;24.00
18365;DHT22;9309;52.126;11.616;2023-02-28T11:35:23;18.90;21.80
18365;DHT22;9309;52.126;11.616;2023-02-28T11:37:50;17.00;22.60
18365;DHT22;9309;52.126;11.616;2023-02-28T11:40:20;14.10;24.90
18365;DHT22;9309;52.126;11.616;2023-02-28T11:42:57;13.20;25.90
18365;DHT22;9309;52.126;11.616;2023-02-28T11:45:40;13.50;26.10
18365;DHT22;9309;52.126;11.616;2023-02-28T11:48:12;12.20;27.10
18365;DHT22;9309;52.126;11.616;2023-02-28T11:50:52;12.80;27.30
18365;DHT22;9309;52.126;11.616;2023-02-28T11:53:34;14.30;26.30
18365;DHT22;9309;52.126;11.616;2023-02-28T11:56:07;13.30;26.50
18365;DHT22;9309;52.126;11.616;2023-02-28T11:58:44;13.10;27.40
18365;DHT22;9309;52.126;11.616;2023-02-28T12:01:26;14.60;25.80
18365;DHT22;9309;52.126;11.616;2023-02-28T12:04:03;16.40;23.90
18365;DHT22;9309;52.126;11.616;2023-02-28T12:06:43;15.80;23.60
18365;DHT22;9309;52.126;11.616;2023-02-28T12:09:40;16.90;23.70
18365;DHT22;9309;52.126;11.616;2023-02-28T12:12:22;18.70;21.60
18365;DHT22;9309;52.126;11.616;2023-02-28T12:15:14;19.40;21.40
18365;DHT22;9309;52.126;11.616;2023-02-28T12:17:51;17.80;22.30
18365;DHT22;9309;52.126;11.616;2023-02-28T12:20:26;18.00;21.60
18365;DHT22;9309;52.126;11.616;2023-02-28T12:23:15;18.30;22.20
18365;DHT22;9309;52.126;11.616;2023-02-28T12:26:00;19.50;21.40
18365;DHT22;9309;52.126;11.616;2023-02-28T12:28:31;19.80;20.50
18365;DHT22;9309;52.126;11.616;2023-02-28T12:31:04;20.00;20.60
18365;DHT22;9309;52.126;11.616;2023-02-28T12:33:35;21.80;19.40
18365;DHT22;9309;52.126;11.616;2023-02-28T12:36:07;23.50;18.70
18365;DHT22;9309;52.126;11.616;2023-02-28T12:38:39;23.00;18.30
18365;DHT22;9309;52.126;11.616;2023-02-28T12:41:12;23.30;18.30
18365;DHT22;9309;52.126;11.616;2023-02-28T12:43:43;22.80;18.30
18365;DHT22;9309;52.126;11.616;2023-02-28T12:46:14;22.40;19.00
18365;DHT22;9309;52.126;11.616;2023-02-28T12:48:47;21.80;18.60
18365;DHT22;9309;52.126;11.616;2023-02-28T12:51:15;20.70;19.70
18365;DHT22;9309;52.126;11.616;2023-02-28T12:53:54;18.70;20.30
18365;DHT22;9309;52.126;11.616;2023-02-28T12:56:30;15.80;23.20
18365;DHT22;9309;52.126;11.616;2023-02-28T12:59:01;16.90;22.20
18365;DHT22;9309;52.126;11.616;2023-02-28T13:01:41;18.10;21.20
18365;DHT22;9309;52.126;11.616;2023-02-28T13:04:34;19.20;20.40
18365;DHT22;9309;52.126;11.616;2023-02-28T13:07:15;20.60;19.70
18365;DHT22;9309;52.126;11.616;2023-02-28T13:09:52;21.50;18.80
18365;DHT22;9309;52.126;11.616;2023-02-28T13:12:20;20.30;19.50
18365;DHT22;9309;52.126;11.616;2023-02-28T13:14:48;20.70;19.20
18365;DHT22;9309;52.126;11.616;2023-02-28T13:17:19;20.40;19.90
18365;DHT22;9309;52.126;11.616;2023-02-28T13:19:56;21.00;19.60
18365;DHT22;9309;52.126;11.616;2023-02-28T13:22:38;18.60;20.20
18365;DHT22;9309;52.126;11.616;2023-02-28T13:31:33;19.80;20.70
18365;DHT22;9309;52.126;11.616;2023-02-28T13:34:14;21.70;19.30
18365;DHT22;9309;52.126;11.616;2023-02-28T13:36:41;19.90;20.10
18365;DHT22;9309;52.126;11.616;2023-02-28T13:42:24;16.80;22.00
18365;DHT22;9309;52.126;11.616;2023-02-28T13:45:25;15.60;23.90
18365;DHT22;9309;52.126;11.616;2023-02-28T13:47:54;15.50;24.50
18365;DHT22;9309;52.126;11.616;2023-02-28T13:50:32;17.50;22.40
18365;DHT22;9309;52.126;11.616;2023-02-28T13:56:18;18.50;21.80
18365;DHT22;9309;52.126;11.616;2023-02-28T13:58:54;20.10;20.20
18365;DHT22;9309;52.126;11.616;2023-02-28T14:01:32;19.90;20.40
18365;DHT22;9309;52.126;11.616;2023-02-28T14:04:33;19.90;20.30
18365;DHT22;9309;52.126;11.616;2023-02-28T14:07:07;20.60;20.00
18365;DHT22;9309;52.126;11.616;2023-02-28T14:09:38;18.40;20.90
18365;DHT22;9309;52.126;11.616;2023-02-28T14:15:28;17.30;22.30
18365;DHT22;9309;52.126;11.616;2023-02-28T14:17:57;16.50;22.80
18365;DHT22;9309;52.126;11.616;2023-02-28T14:20:27;15.80;23.90
18365;DHT22;9309;52.126;11.616;2023-02-28T14:23:05;15.20;24.20
18365;DHT22;9309;52.126;11.616;2023-02-28T14:25:37;14.60;25.30
18365;DHT22;9309;52.126;11.616;2023-02-28T14:28:14;14.60;25.00
18365;DHT22;9309;52.126;11.616;2023-02-28T14:30:56;12.70;26.60
18365;DHT22;9309;52.126;11.616;2023-02-28T14:33:31;10.60;29.30
18365;DHT22;9309;52.126;11.616;2023-02-28T14:36:09;10.00;30.40
18365;DHT22;9309;52.126;11.616;2023-02-28T14:38:44;10.20;30.20
18365;DHT22;9309;52.126;11.616;2023-02-28T14:41:17;9.30;31.40
18365;DHT22;9309;52.126;11.616;2023-02-28T14:43:51;9.60;32.20
18365;DHT22;9309;52.126;11.616;2023-02-28T14:46:19;9.80;32.10
18365;DHT22;9309;52.126;11.616;2023-02-28T14:48:46;9.70;31.60
18365;DHT22;9309;52.126;11.616;2023-02-28T14:51:19;9.30;32.40
18365;DHT22;9309;52.126;11.616;2023-02-28T14:53:53;8.70;33.70
18365;DHT22;9309;52.126;11.616;2023-02-28T14:56:24;8.40;33.90
18365;DHT22;9309;52.126;11.616;2023-02-28T14:58:54;8.30;34.10
18365;DHT22;9309;52.126;11.616;2023-02-28T15:01:23;8.40;34.10
18365;DHT22;9309;52.126;11.616;2023-02-28T15:03:57;8.30;34.40
18365;DHT22;9309;52.126;11.616;2023-02-28T15:06:24;8.00;34.90
18365;DHT22;9309;52.126;11.616;2023-02-28T15:11:48;7.40;36.00
18365;DHT22;9309;52.126;11.616;2023-02-28T15:14:19;7.40;36.30
18365;DHT22;9309;52.126;11.616;2023-02-28T15:16:49;7.90;35.90
18365;DHT22;9309;52.126;11.616;2023-02-28T15:19:21;8.00;34.30
18365;DHT22;9309;52.126;11.616;2023-02-28T15:21:52;8.00;35.00
18365;DHT22;9309;52.126;11.616;2023-02-28T15:24:24;8.20;34.30
18365;DHT22;9309;52.126;11.616;2023-02-28T15:26:58;7.50;36.10
18365;DHT22;9309;52.126;11.616;2023-02-28T15:29:27;7.10;37.40
18365;DHT22;9309;52.126;11.616;2023-02-28T15:31:56;7.20;37.40
18365;DHT22;9309;52.126;11.616;2023-02-28T15:34:28;7.00;37.50
18365;DHT22;9309;52.126;11.616;2023-02-28T15:36:56;6.60;37.40
18365;DHT22;9309;52.126;11.616;2023-02-28T15:39:24;6.40;38.30
18365;DHT22;9309;52.126;11.616;2023-02-28T15:41:55;6.00;39.00
18365;DHT22;9309;52.126;11.616;2023-02-28T15:44:37;6.20;39.10
18365;DHT22;9309;52.126;11.616;2023-02-28T15:47:05;6.40;40.20
18365;DHT22;9309;52.126;11.616;2023-02-28T15:49:39;6.60;38.60
18365;DHT22;9309;52.126;11.616;2023-02-28T15:52:12;6.60;38.40
18365;DHT22;9309;52.126;11.616;2023-02-28T15:54:39;6.30;38.60
18365;DHT22;9309;52.126;11.616;2023-02-28T15:57:13;6.10;39.30
18365;DHT22;9309;52.126;11.616;2023-02-28T15:59:50;5.80;39.10
18365;DHT22;9309;52.126;11.616;2023-02-28T16:02:18;5.80;39.70
18365;DHT22;9309;52.126;11.616;2023-02-28T16:05:01;5.90;39.50
18365;DHT22;9309;52.126;11.616;2023-02-28T16:07:28;5.80;39.80
18365;DHT22;9309;52.126;11.616;2023-02-28T16:09:55;5.60;40.80
18365;DHT22;9309;52.126;11.616;2023-02-28T16:12:26;5.30;41.40
18365;DHT22;9309;52.126;11.616;2023-02-28T16:14:55;5.40;41.40
18365;DHT22;9309;52.126;11.616;2023-02-28T16:17:25;5.10;42.60
18365;DHT22;9309;52.126;11.616;2023-02-28T16:19:53;4.90;42.60
18365;DHT22;9309;52.126;11.616;2023-02-28T16:22:19;4.90;42.80
18365;DHT22;9309;52.126;11.616;2023-02-28T16:24:46;4.80;44.30